sensor_id;sensor_type;location;lat;lon;timestamp;pressure;altitude;pressure_sealevel;temperature;humidity
18858;BME280;9558;50.178;8.370;2023-06-22T00:00:26;98314.31;;;20.14;94.18
18858;BME280;9558;50.178;8.370;2023-06-22T00:03:12;98327.31;;;20.20;94.44
18858;BME280;9558;50.178;8.370;2023-06-22T00:05:59;98327.09;;;20.22;94.85
18858;BME280;9558;50.178;8.370;2023-06-22T00:08:46;98331.41;;;20.28;95.10
18858;BME280;9558;50.178;8.370;2023-06-22T00:11:34;98343.28;;;20.31;94.41
18858;BME280;9558;50.178;8.370;2023-06-22T00:14:21;98348.06;;;20.34;94.15
18858;BME280;9558;50.178;8.370;2023-06-22T00:17:08;98361.28;;;20.39;94.81
18858;BME280;9558;50.178;8.370;2023-06-22T00:19:55;98372.94;;;20.43;94.45
18858;BME280;9558;50.178;8.370;2023-06-22T00:22:44;98386.41;;;20.47;94.37
18858;BME280;9558;50.178;8.370;2023-06-22T00:25:31;98396.00;;;20.53;93.85
18858;BME280;9558;50.178;8.370;2023-06-22T00:28:19;98396.56;;;20.55;93.80
18858;BME280;9558;50.178;8.370;2023-06-22T00:31:05;98392.09;;;20.55;93.68
18858;BME280;9558;50.178;8.370;2023-06-22T00:33:52;98401.59;;;20.57;93.81
18858;BME280;9558;50.178;8.370;2023-06-22T00:36:39;98397.34;;;20.55;94.05
18858;BME280;9558;50.178;8.370;2023-06-22T00:39:26;98401.00;;;20.54;94.10
18858;BME280;9558;50.178;8.370;2023-06-22T00:42:13;98398.63;;;20.53;94.12
18858;BME280;9558;50.178;8.370;2023-06-22T00:45:01;98399.44;;;20.53;94.30
18858;BME280;9558;50.178;8.370;2023-06-22T00:47:48;98420.47;;;20.53;94.95
18858;BME280;9558;50.178;8.370;2023-06-22T00:50:35;98424.13;;;20.52;94.90
18858;BME280;9558;50.178;8.370;2023-06-22T00:53:22;98447.19;;;20.50;95.31
18858;BME280;9558;50.178;8.370;2023-06-22T00:56:09;98454.06;;;20.51;95.07
18858;BME280;9558;50.178;8.370;2023-06-22T00:58:58;98456.69;;;20.51;95.98
18858;BME280;9558;50.178;8.370;2023-06-22T01:01:47;98468.25;;;20.50;96.91
18858;BME280;9558;50.178;8.370;2023-06-22T01:04:35;98475.56;;;20.48;97.90
18858;BME280;9558;50.178;8.370;2023-06-22T01:07:27;98490.19;;;20.44;98.05
18858;BME280;9558;50.178;8.370;2023-06-22T01:10:21;98495.94;;;20.41;98.23
18858;BME280;9558;50.178;8.370;2023-06-22T01:13:17;98498.56;;;20.41;100.00
18858;BME280;9558;50.178;8.370;2023-06-22T01:16:07;98502.44;;;20.38;100.00
18858;BME280;9558;50.178;8.370;2023-06-22T01:19:01;98495.25;;;20.34;100.00
18858;BME280;9558;50.178;8.370;2023-06-22T01:21:53;98463.03;;;20.27;100.00
18858;BME280;9558;50.178;8.370;2023-06-22T01:24:51;98425.56;;;20.19;100.00
18858;BME280;9558;50.178;8.370;2023-06-22T01:27:53;98387.19;;;20.18;100.00
18858;BME280;9558;50.178;8.370;2023-06-22T01:30:49;98365.03;;;20.14;100.00
18858;BME280;9558;50.178;8.370;2023-06-22T01:33:54;98371.22;;;20.08;100.00
18858;BME280;9558;50.178;8.370;2023-06-22T01:36:41;98374.31;;;20.05;100.00
18858;BME280;9558;50.178;8.370;2023-06-22T01:39:29;98376.34;;;20.03;100.00
18858;BME280;9558;50.178;8.370;2023-06-22T01:42:16;98370.44;;;19.96;100.00
18858;BME280;9558;50.178;8.370;2023-06-22T01:45:05;98373.41;;;19.88;100.00
18858;BME280;9558;50.178;8.370;2023-06-22T01:47:53;98384.28;;;19.79;100.00
18858;BME280;9558;50.178;8.370;2023-06-22T01:50:41;98402.50;;;19.74;100.00
18858;BME280;9558;50.178;8.370;2023-06-22T01:53:27;98410.63;;;19.73;100.00
18858;BME280;9558;50.178;8.370;2023-06-22T01:56:16;98410.38;;;19.74;100.00
18858;BME280;9558;50.178;8.370;2023-06-22T01:59:07;98404.56;;;19.72;100.00
18858;BME280;9558;50.178;8.370;2023-06-22T02:02:00;98392.94;;;19.68;100.00
18858;BME280;9558;50.178;8.370;2023-06-22T02:04:52;98364.50;;;19.65;100.00
18858;BME280;9558;50.178;8.370;2023-06-22T02:07:44;98346.94;;;19.65;100.00
18858;BME280;9558;50.178;8.370;2023-06-22T02:10:34;98335.63;;;19.65;100.00
18858;BME280;9558;50.178;8.370;2023-06-22T02:13:23;98336.66;;;19.64;100.00
18858;BME280;9558;50.178;8.370;2023-06-22T02:16:11;98337.66;;;19.63;100.00
18858;BME280;9558;50.178;8.370;2023-06-22T02:19:00;98349.44;;;19.60;100.00
18858;BME280;9558;50.178;8.370;2023-06-22T02:21:50;98357.22;;;19.55;100.00
18858;BME280;9558;50.178;8.370;2023-06-22T02:24:36;98361.31;;;19.51;100.00
18858;BME280;9558;50.178;8.370;2023-06-22T02:27:23;98360.16;;;19.47;100.00
18858;BME280;9558;50.178;8.370;2023-06-22T02:30:10;98363.47;;;19.42;100.00
18858;BME280;9558;50.178;8.370;2023-06-22T02:32:57;98367.69;;;19.43;100.00
18858;BME280;9558;50.178;8.370;2023-06-22T02:35:45;98363.47;;;19.42;100.00
18858;BME280;9558;50.178;8.370;2023-06-22T02:38:35;98385.63;;;19.46;100.00
18858;BME280;9558;50.178;8.370;2023-06-22T02:41:22;98397.28;;;19.50;100.00
18858;BME280;9558;50.178;8.370;2023-06-22T02:44:09;98369.97;;;19.51;100.00
18858;BME280;9558;50.178;8.370;2023-06-22T02:46:56;98349.56;;;19.54;100.00
18858;BME280;9558;50.178;8.370;2023-06-22T02:49:42;98323.19;;;19.48;100.00
18858;BME280;9558;50.178;8.370;2023-06-22T02:52:30;98317.16;;;19.48;100.00
18858;BME280;9558;50.178;8.370;2023-06-22T02:55:18;98321.34;;;19.49;100.00
18858;BME280;9558;50.178;8.370;2023-06-22T02:58:05;98327.41;;;19.49;100.00
18858;BME280;9558;50.178;8.370;2023-06-22T03:00:52;98328.44;;;19.48;100.00
18858;BME280;9558;50.178;8.370;2023-06-22T03:03:39;98333.38;;;19.45;100.00
18858;BME280;9558;50.178;8.370;2023-06-22T03:06:26;98328.53;;;19.42;100.00
18858;BME280;9558;50.178;8.370;2023-06-22T03:09:14;98326.97;;;19.41;100.00
18858;BME280;9558;50.178;8.370;2023-06-22T03:12:02;98317.72;;;19.38;100.00
18858;BME280;9558;50.178;8.370;2023-06-22T03:14:49;98303.00;;;19.37;100.00
18858;BME280;9558;50.178;8.370;2023-06-22T03:17:36;98309.84;;;19.38;100.00
18858;BME280;9558;50.178;8.370;2023-06-22T03:20:24;98308.00;;;19.39;100.00
18858;BME280;9558;50.178;8.370;2023-06-22T03:23:12;98306.22;;;19.39;100.00
18858;BME280;9558;50.178;8.370;2023-06-22T03:25:59;98304.59;;;19.38;100.00
18858;BME280;9558;50.178;8.370;2023-06-22T03:28:47;98309.84;;;19.38;100.00
18858;BME280;9558;50.178;8.370;2023-06-22T03:31:34;98308.25;;;19.37;100.00
18858;BME280;9558;50.178;8.370;2023-06-22T03:34:20;98305.84;;;19.36;100.00
18858;BME280;9558;50.178;8.370;2023-06-22T03:37:07;98307.47;;;19.37;100.00
18858;BME280;9558;50.178;8.370;2023-06-22T03:39:54;98290.47;;;19.39;100.00
18858;BME280;9558;50.178;8.370;2023-06-22T03:42:41;98292.03;;;19.40;100.00
18858;BME280;9558;50.178;8.370;2023-06-22T03:45:29;98287.38;;;19.42;100.00
18858;BME280;9558;50.178;8.370;2023-06-22T03:48:16;98285.53;;;19.43;100.00
18858;BME280;9558;50.178;8.370;2023-06-22T03:51:02;98290.56;;;19.44;100.00
18858;BME280;9558;50.178;8.370;2023-06-22T03:53:49;98294.78;;;19.45;100.00
18858;BME280;9558;50.178;8.370;2023-06-22T03:56:36;98294.78;;;19.45;100.00
18858;BME280;9558;50.178;8.370;2023-06-22T03:59:24;98298.78;;;19.48;100.00
18858;BME280;9558;50.178;8.370;2023-06-22T04:02:12;98306.41;;;19.49;100.00
18858;BME280;9558;50.178;8.370;2023-06-22T04:04:59;98301.72;;;19.51;100.00
18858;BME280;9558;50.178;8.370;2023-06-22T04:07:45;98298.63;;;19.55;100.00
18858;BME280;9558;50.178;8.370;2023-06-22T04:10:32;98308.69;;;19.58;100.00
18858;BME280;9558;50.178;8.370;2023-06-22T04:13:19;98303.78;;;19.61;100.00
18858;BME280;9558;50.178;8.370;2023-06-22T04:16:06;98299.66;;;19.65;100.00
18858;BME280;9558;50.178;8.370;2023-06-22T04:18:54;98305.22;;;19.69;100.00
18858;BME280;9558;50.178;8.370;2023-06-22T04:21:41;98303.19;;;19.71;100.00
18858;BME280;9558;50.178;8.370;2023-06-22T04:24:27;98304.81;;;19.72;100.00
18858;BME280;9558;50.178;8.370;2023-06-22T04:27:14;98311.63;;;19.73;100.00
18858;BME280;9558;50.178;8.370;2023-06-22T04:30:01;98311.63;;;19.73;100.00
18858;BME280;9558;50.178;8.370;2023-06-22T04:32:48;98306.38;;;19.73;100.00
18858;BME280;9558;50.178;8.370;2023-06-22T04:35:45;98307.50;;;19.77;100.00
18858;BME280;9558;50.178;8.370;2023-06-22T04:38:31;98325.69;;;19.79;100.00
18858;BME280;9558;50.178;8.370;2023-06-22T04:41:19;98322.84;;;19.80;100.00
18858;BME280;9558;50.178;8.370;2023-06-22T04:44:09;98332.09;;;19.83;100.00
18858;BME280;9558;50.178;8.370;2023-06-22T04:46:57;98320.09;;;19.87;100.00
18858;BME280;9558;50.178;8.370;2023-06-22T04:49:47;98325.09;;;19.89;100.00
18858;BME280;9558;50.178;8.370;2023-06-22T04:52:35;98321.78;;;19.93;100.00
18858;BME280;9558;50.178;8.370;2023-06-22T04:55:23;98322.69;;;19.99;100.00
18858;BME280;9558;50.178;8.370;2023-06-22T04:58:11;98320.41;;;20.02;100.00
18858;BME280;9558;50.178;8.370;2023-06-22T05:00:58;98319.69;;;20.07;100.00
18858;BME280;9558;50.178;8.370;2023-06-22T05:03:45;98319.81;;;20.12;100.00
18858;BME280;9558;50.178;8.370;2023-06-22T05:06:32;98308.34;;;20.18;100.00
18858;BME280;9558;50.178;8.370;2023-06-22T05:09:20;98312.66;;;20.25;100.00
18858;BME280;9558;50.178;8.370;2023-06-22T05:12:08;98304.88;;;20.30;100.00
18858;BME280;9558;50.178;8.370;2023-06-22T05:14:54;98304.16;;;20.34;100.00
18858;BME280;9558;50.178;8.370;2023-06-22T05:17:41;98314.31;;;20.43;100.00
18858;BME280;9558;50.178;8.370;2023-06-22T05:20:29;98317.03;;;20.48;100.00
18858;BME280;9558;50.178;8.370;2023-06-22T05:23:15;98303.72;;;20.54;100.00
18858;BME280;9558;50.178;8.370;2023-06-22T05:26:03;98305.44;;;20.61;100.00
18858;BME280;9558;50.178;8.370;2023-06-22T05:28:50;98310.75;;;20.66;100.00
18858;BME280;9558;50.178;8.370;2023-06-22T05:31:37;98297.16;;;20.69;100.00
18858;BME280;9558;50.178;8.370;2023-06-22T05:34:25;98305.16;;;20.74;100.00
18858;BME280;9558;50.178;8.370;2023-06-22T05:37:12;98303.06;;;20.76;100.00
18858;BME280;9558;50.178;8.370;2023-06-22T05:39:59;98300.44;;;20.76;100.00
18858;BME280;9558;50.178;8.370;2023-06-22T05:42:47;98301.25;;;20.77;100.00
18858;BME280;9558;50.178;8.370;2023-06-22T05:45:34;98291.03;;;20.80;100.00
18858;BME280;9558;50.178;8.370;2023-06-22T05:48:20;98286.84;;;20.79;100.00
18858;BME280;9558;50.178;8.370;2023-06-22T05:51:07;98295.03;;;20.83;100.00
18858;BME280;9558;50.178;8.370;2023-06-22T05:53:54;98305.06;;;20.86;100.00
18858;BME280;9558;50.178;8.370;2023-06-22T05:56:41;98290.16;;;20.92;100.00
18858;BME280;9558;50.178;8.370;2023-06-22T05:59:29;98299.19;;;20.96;100.00
18858;BME280;9558;50.178;8.370;2023-06-22T06:02:16;98297.19;;;21.03;100.00
18858;BME280;9558;50.178;8.370;2023-06-22T06:05:03;98292.31;;;21.12;100.00
18858;BME280;9558;50.178;8.370;2023-06-22T06:07:50;98298.03;;;21.26;100.00
18858;BME280;9558;50.178;8.370;2023-06-22T06:10:37;98303.53;;;21.41;100.00
18858;BME280;9558;50.178;8.370;2023-06-22T06:13:23;98298.25;;;21.58;100.00
18858;BME280;9558;50.178;8.370;2023-06-22T06:16:12;98299.31;;;21.79;100.00
18858;BME280;9558;50.178;8.370;2023-06-22T06:18:59;98297.59;;;22.12;100.00
18858;BME280;9558;50.178;8.370;2023-06-22T06:21:46;98305.38;;;22.51;100.00
18858;BME280;9558;50.178;8.370;2023-06-22T06:24:33;98295.19;;;22.98;100.00
18858;BME280;9558;50.178;8.370;2023-06-22T06:27:19;98307.75;;;23.55;100.00
18858;BME280;9558;50.178;8.370;2023-06-22T06:30:07;98300.31;;;24.15;100.00
18858;BME280;9558;50.178;8.370;2023-06-22T06:32:56;98304.41;;;24.80;100.00
18858;BME280;9558;50.178;8.370;2023-06-22T06:35:43;98297.72;;;25.44;97.91
18858;BME280;9558;50.178;8.370;2023-06-22T06:38:31;98299.88;;;26.08;94.72
18858;BME280;9558;50.178;8.370;2023-06-22T06:41:22;98308.25;;;26.65;92.62
18858;BME280;9558;50.178;8.370;2023-06-22T06:44:09;98297.47;;;27.20;90.53
18858;BME280;9558;50.178;8.370;2023-06-22T06:46:56;98296.69;;;27.68;87.53
18858;BME280;9558;50.178;8.370;2023-06-22T06:49:45;98287.56;;;28.17;84.70
18858;BME280;9558;50.178;8.370;2023-06-22T06:52:31;98285.19;;;28.54;79.84
18858;BME280;9558;50.178;8.370;2023-06-22T06:55:18;98283.53;;;28.91;77.01
18858;BME280;9558;50.178;8.370;2023-06-22T06:58:05;98280.31;;;29.22;78.82
18858;BME280;9558;50.178;8.370;2023-06-22T07:00:53;98287.25;;;29.37;75.55
18858;BME280;9558;50.178;8.370;2023-06-22T07:03:40;98296.03;;;29.65;75.25
18858;BME280;9558;50.178;8.370;2023-06-22T07:06:28;98299.97;;;29.81;75.06
18858;BME280;9558;50.178;8.370;2023-06-22T07:09:17;98297.38;;;30.04;74.14
18858;BME280;9558;50.178;8.370;2023-06-22T07:12:05;98294.38;;;30.20;71.21
18858;BME280;9558;50.178;8.370;2023-06-22T07:14:53;98290.16;;;30.41;69.91
18858;BME280;9558;50.178;8.370;2023-06-22T07:17:40;98290.28;;;30.59;69.31
18858;BME280;9558;50.178;8.370;2023-06-22T07:20:27;98278.63;;;30.77;68.58
18858;BME280;9558;50.178;8.370;2023-06-22T07:23:16;98283.91;;;31.00;68.70
18858;BME280;9558;50.178;8.370;2023-06-22T07:26:03;98284.31;;;31.16;66.81
18858;BME280;9558;50.178;8.370;2023-06-22T07:28:51;98288.41;;;31.13;59.93
18858;BME280;9558;50.178;8.370;2023-06-22T07:31:38;98275.78;;;31.45;63.33
18858;BME280;9558;50.178;8.370;2023-06-22T07:34:26;98283.75;;;31.77;61.38
18858;BME280;9558;50.178;8.370;2023-06-22T07:37:13;98283.91;;;31.98;59.16
18858;BME280;9558;50.178;8.370;2023-06-22T07:40:01;98281.41;;;32.36;59.85
18858;BME280;9558;50.178;8.370;2023-06-22T07:42:51;98271.47;;;32.72;57.28
18858;BME280;9558;50.178;8.370;2023-06-22T07:45:39;98270.22;;;33.08;57.30
18858;BME280;9558;50.178;8.370;2023-06-22T07:48:27;98267.59;;;33.38;52.46
18858;BME280;9558;50.178;8.370;2023-06-22T07:51:14;98251.38;;;33.34;49.82
18858;BME280;9558;50.178;8.370;2023-06-22T07:54:01;98250.50;;;33.51;49.27
18858;BME280;9558;50.178;8.370;2023-06-22T07:56:49;98252.34;;;33.81;49.58
18858;BME280;9558;50.178;8.370;2023-06-22T07:59:36;98251.69;;;34.05;48.80
18858;BME280;9558;50.178;8.370;2023-06-22T08:02:23;98251.38;;;34.27;46.70
18858;BME280;9558;50.178;8.370;2023-06-22T08:05:11;98242.94;;;34.50;46.17
18858;BME280;9558;50.178;8.370;2023-06-22T08:07:58;98240.97;;;34.72;46.02
18858;BME280;9558;50.178;8.370;2023-06-22T08:10:45;98241.44;;;35.11;46.36
18858;BME280;9558;50.178;8.370;2023-06-22T08:13:33;98244.94;;;35.49;45.27
18858;BME280;9558;50.178;8.370;2023-06-22T08:16:20;98237.16;;;35.84;44.90
18858;BME280;9558;50.178;8.370;2023-06-22T08:19:07;98233.28;;;35.97;42.92
18858;BME280;9558;50.178;8.370;2023-06-22T08:21:54;98230.34;;;36.03;42.92
18858;BME280;9558;50.178;8.370;2023-06-22T08:24:41;98223.81;;;36.04;41.81
18858;BME280;9558;50.178;8.370;2023-06-22T08:27:27;98223.72;;;36.28;41.12
18858;BME280;9558;50.178;8.370;2023-06-22T08:30:18;98228.63;;;36.39;41.82
18858;BME280;9558;50.178;8.370;2023-06-22T08:33:05;98220.03;;;36.49;40.86
18858;BME280;9558;50.178;8.370;2023-06-22T08:35:51;98220.03;;;36.49;41.40
18858;BME280;9558;50.178;8.370;2023-06-22T08:38:38;98211.16;;;36.64;41.58
18858;BME280;9558;50.178;8.370;2023-06-22T08:41:25;98212.47;;;36.87;41.24
18858;BME280;9558;50.178;8.370;2023-06-22T08:44:13;98213.69;;;36.89;39.49
18858;BME280;9558;50.178;8.370;2023-06-22T08:47:01;98211.94;;;36.97;39.89
18858;BME280;9558;50.178;8.370;2023-06-22T08:49:49;98211.22;;;37.16;40.37
18858;BME280;9558;50.178;8.370;2023-06-22T08:52:36;98206.63;;;37.00;39.38
18858;BME280;9558;50.178;8.370;2023-06-22T08:55:23;98208.66;;;36.88;40.20
18858;BME280;9558;50.178;8.370;2023-06-22T08:58:10;98202.38;;;36.67;40.46
18858;BME280;9558;50.178;8.370;2023-06-22T09:00:57;98192.72;;;36.66;40.35
18858;BME280;9558;50.178;8.370;2023-06-22T09:03:48;98188.56;;;36.53;40.38
18858;BME280;9558;50.178;8.370;2023-06-22T09:06:39;98195.59;;;36.58;40.40
18858;BME280;9558;50.178;8.370;2023-06-22T09:09:30;98196.47;;;36.62;40.77
18858;BME280;9558;50.178;8.370;2023-06-22T09:12:17;98192.50;;;36.27;41.36
18858;BME280;9558;50.178;8.370;2023-06-22T09:15:06;98200.81;;;35.66;41.47
18858;BME280;9558;50.178;8.370;2023-06-22T09:17:53;98181.63;;;35.02;42.14
18858;BME280;9558;50.178;8.370;2023-06-22T09:20:42;98178.41;;;34.38;44.30
18858;BME280;9558;50.178;8.370;2023-06-22T09:23:29;98169.88;;;33.90;45.58
18858;BME280;9558;50.178;8.370;2023-06-22T09:26:16;98167.25;;;33.60;46.63
18858;BME280;9558;50.178;8.370;2023-06-22T09:29:04;98161.78;;;33.27;47.34
18858;BME280;9558;50.178;8.370;2023-06-22T09:31:51;98175.59;;;33.07;48.22
18858;BME280;9558;50.178;8.370;2023-06-22T09:34:39;98166.63;;;32.65;48.51
18858;BME280;9558;50.178;8.370;2023-06-22T09:37:27;98166.56;;;32.35;49.66
18858;BME280;9558;50.178;8.370;2023-06-22T09:40:14;98157.00;;;31.99;50.42
18858;BME280;9558;50.178;8.370;2023-06-22T09:43:02;98148.81;;;31.86;50.30
18858;BME280;9558;50.178;8.370;2023-06-22T09:45:49;98152.16;;;31.75;51.59
18858;BME280;9558;50.178;8.370;2023-06-22T09:48:36;98154.38;;;31.64;52.17
18858;BME280;9558;50.178;8.370;2023-06-22T09:51:23;98155.25;;;31.42;54.06
18858;BME280;9558;50.178;8.370;2023-06-22T09:54:11;98136.03;;;31.22;53.62
18858;BME280;9558;50.178;8.370;2023-06-22T09:56:58;98129.25;;;31.07;54.01
18858;BME280;9558;50.178;8.370;2023-06-22T09:59:45;98128.91;;;31.00;54.00
18858;BME280;9558;50.178;8.370;2023-06-22T10:02:32;98113.50;;;30.97;52.80
18858;BME280;9558;50.178;8.370;2023-06-22T10:05:19;98122.28;;;30.89;53.14
18858;BME280;9558;50.178;8.370;2023-06-22T10:08:06;98122.69;;;30.73;54.71
18858;BME280;9558;50.178;8.370;2023-06-22T10:10:56;98121.28;;;30.67;54.49
18858;BME280;9558;50.178;8.370;2023-06-22T10:13:43;98110.03;;;30.47;54.81
18858;BME280;9558;50.178;8.370;2023-06-22T10:16:31;98106.63;;;30.33;55.08
18858;BME280;9558;50.178;8.370;2023-06-22T10:19:18;98102.69;;;30.30;55.63
18858;BME280;9558;50.178;8.370;2023-06-22T10:22:05;98101.66;;;30.09;56.72
18858;BME280;9558;50.178;8.370;2023-06-22T10:24:52;98103.66;;;30.03;57.85
18858;BME280;9558;50.178;8.370;2023-06-22T10:27:40;98091.41;;;30.02;58.05
18858;BME280;9558;50.178;8.370;2023-06-22T10:30:27;98091.22;;;29.98;56.89
18858;BME280;9558;50.178;8.370;2023-06-22T10:33:14;98090.44;;;29.98;58.14
18858;BME280;9558;50.178;8.370;2023-06-22T10:36:01;98081.69;;;30.06;58.60
18858;BME280;9558;50.178;8.370;2023-06-22T10:38:48;98082.03;;;30.13;58.47
18858;BME280;9558;50.178;8.370;2023-06-22T10:41:35;98075.66;;;30.23;58.61
18858;BME280;9558;50.178;8.370;2023-06-22T10:44:23;98070.34;;;30.32;58.09
18858;BME280;9558;50.178;8.370;2023-06-22T10:47:10;98059.69;;;30.41;58.38
18858;BME280;9558;50.178;8.370;2023-06-22T10:49:57;98048.59;;;30.47;57.99
18858;BME280;9558;50.178;8.370;2023-06-22T10:52:44;98041.88;;;30.59;58.21
18858;BME280;9558;50.178;8.370;2023-06-22T10:55:31;98027.47;;;30.68;57.42
18858;BME280;9558;50.178;8.370;2023-06-22T10:58:17;98022.25;;;30.72;57.51
18858;BME280;9558;50.178;8.370;2023-06-22T11:01:06;98021.34;;;30.77;57.17
18858;BME280;9558;50.178;8.370;2023-06-22T11:03:52;98011.63;;;30.90;56.68
18858;BME280;9558;50.178;8.370;2023-06-22T11:06:39;98006.59;;;30.97;56.68
18858;BME280;9558;50.178;8.370;2023-06-22T11:09:26;97994.78;;;30.98;55.43
18858;BME280;9558;50.178;8.370;2023-06-22T11:12:12;98007.56;;;31.01;54.70
18858;BME280;9558;50.178;8.370;2023-06-22T11:14:59;97987.75;;;31.02;54.89
18858;BME280;9558;50.178;8.370;2023-06-22T11:17:47;97994.34;;;31.05;54.33
18858;BME280;9558;50.178;8.370;2023-06-22T11:20:34;97985.88;;;31.11;54.24
18858;BME280;9558;50.178;8.370;2023-06-22T11:23:24;97978.94;;;31.10;53.19
18858;BME280;9558;50.178;8.370;2023-06-22T11:26:11;97991.03;;;31.16;53.13
18858;BME280;9558;50.178;8.370;2023-06-22T11:28:58;97985.38;;;31.18;50.33
18858;BME280;9558;50.178;8.370;2023-06-22T11:31:45;97971.88;;;31.06;50.17
18858;BME280;9558;50.178;8.370;2023-06-22T11:34:33;97977.84;;;31.11;49.78
18858;BME280;9558;50.178;8.370;2023-06-22T11:37:20;97971.72;;;31.19;50.88
18858;BME280;9558;50.178;8.370;2023-06-22T11:40:09;97975.63;;;31.22;48.91
18858;BME280;9558;50.178;8.370;2023-06-22T11:42:56;97975.16;;;31.29;50.31
18858;BME280;9558;50.178;8.370;2023-06-22T11:45:43;97979.41;;;31.39;49.63
18858;BME280;9558;50.178;8.370;2023-06-22T11:48:30;97964.59;;;31.41;49.14
18858;BME280;9558;50.178;8.370;2023-06-22T11:51:18;97975.41;;;31.53;49.92
18858;BME280;9558;50.178;8.370;2023-06-22T11:54:05;97962.84;;;31.63;49.67
18858;BME280;9558;50.178;8.370;2023-06-22T11:56:51;97965.13;;;31.82;49.14
18858;BME280;9558;50.178;8.370;2023-06-22T11:59:38;97958.47;;;31.97;49.69
18858;BME280;9558;50.178;8.370;2023-06-22T12:02:25;97958.88;;;32.08;49.02
18858;BME280;9558;50.178;8.370;2023-06-22T12:05:12;97955.44;;;32.07;48.17
18858;BME280;9558;50.178;8.370;2023-06-22T12:08:00;97945.22;;;32.00;48.56
18858;BME280;9558;50.178;8.370;2023-06-22T12:10:47;97933.09;;;32.03;47.20
18858;BME280;9558;50.178;8.370;2023-06-22T12:13:34;97951.63;;;32.08;47.64
18858;BME280;9558;50.178;8.370;2023-06-22T12:16:20;97945.56;;;31.99;46.84
18858;BME280;9558;50.178;8.370;2023-06-22T12:19:08;97942.44;;;31.97;47.79
18858;BME280;9558;50.178;8.370;2023-06-22T12:21:54;97944.28;;;31.96;48.91
18858;BME280;9558;50.178;8.370;2023-06-22T12:24:42;97948.88;;;31.96;48.21
18858;BME280;9558;50.178;8.370;2023-06-22T12:27:29;97941.00;;;31.91;49.27
18858;BME280;9558;50.178;8.370;2023-06-22T12:30:16;97949.53;;;31.93;48.59
18858;BME280;9558;50.178;8.370;2023-06-22T12:33:03;97949.97;;;31.95;49.07
18858;BME280;9558;50.178;8.370;2023-06-22T12:35:50;97944.34;;;31.87;48.57
18858;BME280;9558;50.178;8.370;2023-06-22T12:38:36;97931.59;;;31.84;49.41
18858;BME280;9558;50.178;8.370;2023-06-22T12:41:25;97938.53;;;31.85;49.06
18858;BME280;9558;50.178;8.370;2023-06-22T12:44:11;97927.63;;;31.91;49.14
18858;BME280;9558;50.178;8.370;2023-06-22T12:46:58;97918.94;;;31.94;49.50
18858;BME280;9558;50.178;8.370;2023-06-22T12:49:45;97921.47;;;31.99;49.91
18858;BME280;9558;50.178;8.370;2023-06-22T12:52:31;97924.59;;;32.01;46.64
18858;BME280;9558;50.178;8.370;2023-06-22T12:55:18;97917.31;;;32.10;47.79
18858;BME280;9558;50.178;8.370;2023-06-22T12:58:06;97911.81;;;32.15;48.12
18858;BME280;9558;50.178;8.370;2023-06-22T13:00:53;97903.25;;;32.22;47.97
18858;BME280;9558;50.178;8.370;2023-06-22T13:03:41;97909.00;;;32.33;47.89
18858;BME280;9558;50.178;8.370;2023-06-22T13:06:28;97907.91;;;32.34;46.60
18858;BME280;9558;50.178;8.370;2023-06-22T13:09:17;97909.28;;;32.40;46.52
18858;BME280;9558;50.178;8.370;2023-06-22T13:12:04;97903.59;;;32.42;46.41
18858;BME280;9558;50.178;8.370;2023-06-22T13:14:52;97905.44;;;32.50;47.00
18858;BME280;9558;50.178;8.370;2023-06-22T13:17:39;97894.16;;;32.56;46.98
18858;BME280;9558;50.178;8.370;2023-06-22T13:20:26;97885.75;;;32.67;47.19
18858;BME280;9558;50.178;8.370;2023-06-22T13:23:13;97883.09;;;32.67;46.64
18858;BME280;9558;50.178;8.370;2023-06-22T13:26:00;97881.19;;;32.67;46.76
18858;BME280;9558;50.178;8.370;2023-06-22T13:28:47;97883.84;;;32.67;46.56
18858;BME280;9558;50.178;8.370;2023-06-22T13:31:35;97879.00;;;32.61;46.68
18858;BME280;9558;50.178;8.370;2023-06-22T13:34:21;97872.31;;;32.54;47.34
18858;BME280;9558;50.178;8.370;2023-06-22T13:37:09;97854.66;;;32.53;47.73
18858;BME280;9558;50.178;8.370;2023-06-22T13:39:56;97852.88;;;32.58;47.46
18858;BME280;9558;50.178;8.370;2023-06-22T13:42:45;97841.31;;;32.66;48.23
18858;BME280;9558;50.178;8.370;2023-06-22T13:45:31;97838.59;;;32.75;48.23
18858;BME280;9558;50.178;8.370;2023-06-22T13:48:19;97825.50;;;32.73;48.35
18858;BME280;9558;50.178;8.370;2023-06-22T13:51:06;97832.81;;;32.85;48.65
18858;BME280;9558;50.178;8.370;2023-06-22T13:53:53;97817.19;;;32.87;48.02
18858;BME280;9558;50.178;8.370;2023-06-22T13:56:40;97827.09;;;32.86;48.58
18858;BME280;9558;50.178;8.370;2023-06-22T13:59:26;97814.13;;;32.76;48.73
18858;BME280;9558;50.178;8.370;2023-06-22T14:02:13;97802.75;;;32.58;49.62
18858;BME280;9558;50.178;8.370;2023-06-22T14:05:01;97791.94;;;32.54;49.35
18858;BME280;9558;50.178;8.370;2023-06-22T14:07:48;97778.03;;;32.40;48.99
18858;BME280;9558;50.178;8.370;2023-06-22T14:10:35;97769.69;;;32.20;49.83
18858;BME280;9558;50.178;8.370;2023-06-22T14:13:22;97769.59;;;32.08;50.50
18858;BME280;9558;50.178;8.370;2023-06-22T14:16:08;97779.94;;;31.97;50.19
18858;BME280;9558;50.178;8.370;2023-06-22T14:18:55;97779.84;;;31.85;50.46
18858;BME280;9558;50.178;8.370;2023-06-22T14:21:43;97781.88;;;31.67;51.30
18858;BME280;9558;50.178;8.370;2023-06-22T14:24:30;97775.78;;;31.58;51.86
18858;BME280;9558;50.178;8.370;2023-06-22T14:27:17;97764.03;;;31.41;52.41
18858;BME280;9558;50.178;8.370;2023-06-22T14:30:04;97747.44;;;31.27;52.35
18858;BME280;9558;50.178;8.370;2023-06-22T14:32:51;97752.41;;;31.07;53.05
18858;BME280;9558;50.178;8.370;2023-06-22T14:35:38;97754.47;;;30.93;53.58
18858;BME280;9558;50.178;8.370;2023-06-22T14:38:26;97757.66;;;30.77;55.10
18858;BME280;9558;50.178;8.370;2023-06-22T14:41:14;97771.03;;;30.68;55.14
18858;BME280;9558;50.178;8.370;2023-06-22T14:44:02;97776.22;;;30.65;55.38
18858;BME280;9558;50.178;8.370;2023-06-22T14:46:49;97772.91;;;30.59;54.88
18858;BME280;9558;50.178;8.370;2023-06-22T14:49:36;97758.34;;;30.57;52.22
18858;BME280;9558;50.178;8.370;2023-06-22T14:52:22;97774.06;;;30.49;51.11
18858;BME280;9558;50.178;8.370;2023-06-22T14:55:10;97766.66;;;30.46;50.83